This is the latest recevied weather packets stored in our database for station/object EPGD. If no packets are shown the sender has not sent any weather packets the latest 10 day(s).
| Time | Temp. | Humidity | Pressure | Rain* | Wind** | Luminosity | Snow |
|---|---|---|---|---|---|---|---|
| 1777858504 | 11.67° C | 62% | 1009 hPa | - | - | - | - |
| 1777856704 | 13.89° C | 54% | 1009 hPa | - | - | - | - |
| 1777854904 | 12.78° C | 62% | 1009 hPa | - | - | - | - |
| 1777853104 | 13.89° C | 54% | 1009 hPa | - | - | - | - |
| 1777851304 | 12.78° C | 62% | 1010 hPa | - | - | - | - |
| 1777849504 | 13.89° C | 58% | 1010 hPa | - | - | - | - |
| 1777847703 | 13.89° C | 58% | 1010 hPa | - | - | - | - |
| 1777845904 | 13.89° C | 58% | 1011 hPa | - | - | - | - |
| 1777844103 | 15.56° C | 51% | 1011 hPa | - | - | - | - |
| 1777842304 | 15° C | 54% | 1011 hPa | - | - | - | - |
| 1777840504 | 15.56° C | 51% | 1011 hPa | - | - | - | - |
| 1777838704 | 15° C | 54% | 1011 hPa | - | - | - | - |
| 1777836904 | 16.67° C | 45% | 1011 hPa | - | - | - | - |
| 1777835104 | 16.67° C | 45% | 1011 hPa | - | - | - | - |
| 1777833303 | 17.78° C | 42% | 1011 hPa | - | - | - | - |
| 1777831504 | 18.89° C | 39% | 1010 hPa | - | - | - | - |
| 1777829704 | 18.89° C | 42% | 1010 hPa | - | - | - | - |
| 1777827904 | 21.67° C | 32% | 1010 hPa | - | - | - | - |
| 1777826104 | 22.78° C | 31% | 1010 hPa | - | - | - | - |
| 1777824304 | 21.67° C | 32% | 1010 hPa | - | - | - | - |
| 1777822504 | 21.67° C | 30% | 1010 hPa | - | - | - | - |
| 1777820703 | 27.78° C | 18% | 1010 hPa | - | - | - | - |
| 1777818904 | 27.78° C | 18% | 1010 hPa | - | - | - | - |
| 1777817104 | 26.67° C | 18% | 1011 hPa | - | - | - | - |
| 1777815304 | 27.78° C | 18% | 1011 hPa | - | - | - | - |
* Rain since midnight (hover to see other rain measurements)
** Current wind speed in m/s (hover to see current wind gust speed)